Time;durP1;ratioP1;P1;durP2;ratioP2;P2;SDS_P1;SDS_P2;PMS_P1;PMS_P2;Temp;Humidity;BMP_temperature;BMP_pressure;BME280_temperature;BME280_humidity;BME280_pressure;Samples;Min_cycle;Max_cycle;Signal;HPM_P1;HPM_P2
2022/01/05 00:01:46;;;;;;;4.12;3.20;;;;;;;6.83;92.96;95894.04;1780747;80;21083;-64
2022/01/05 00:04:13;;;;;;;4.15;3.08;;;;;;;6.85;92.91;95899.28;1780615;80;21423;-61
2022/01/05 00:06:41;;;;;;;7.90;3.75;;;;;;;6.88;92.88;95888.02;1780474;80;20976;-60
2022/01/05 00:09:08;;;;;;;4.97;3.58;;;;;;;6.93;92.80;95883.06;1780463;80;20907;-64
2022/01/05 00:11:35;;;;;;;6.28;4.30;;;;;;;6.98;92.66;95886.10;1780593;80;20982;-62
2022/01/05 00:14:03;;;;;;;5.40;3.70;;;;;;;7.01;92.56;95886.27;1780435;80;21031;-60
2022/01/05 00:16:30;;;;;;;6.10;3.20;;;;;;;7.04;92.42;95886.19;1780609;80;21350;-62
2022/01/05 00:18:58;;;;;;;4.78;3.08;;;;;;;7.09;92.22;95883.35;1780472;80;20836;-59
2022/01/05 00:21:24;;;;;;;5.78;3.35;;;;;;;7.14;92.10;95871.96;1780444;80;20962;-60
2022/01/05 00:23:51;;;;;;;6.28;5.12;;;;;;;7.19;91.90;95881.66;1780529;80;20998;-62
2022/01/05 00:26:18;;;;;;;4.97;3.75;;;;;;;7.23;91.79;95874.61;1780405;80;21110;-60
2022/01/05 00:28:45;;;;;;;5.25;2.75;;;;;;;7.25;91.65;95875.07;1780405;80;20919;-62
2022/01/05 00:31:11;;;;;;;3.55;2.90;;;;;;;7.27;91.49;95878.19;1780448;80;20919;-65
2022/01/05 00:33:38;;;;;;;4.40;3.35;;;;;;;7.29;91.37;95873.33;1780696;80;20908;-62
2022/01/05 00:36:06;;;;;;;4.65;3.15;;;;;;;7.32;91.31;95872.69;1780463;80;21311;-62
2022/01/05 00:38:34;;;;;;;4.85;3.50;;;;;;;7.36;91.20;95865.61;1780460;80;21106;-62
2022/01/05 00:41:01;;;;;;;4.12;3.58;;;;;;;7.40;91.10;95881.17;1780390;80;21002;-60
2022/01/05 00:43:30;;;;;;;4.15;3.15;;;;;;;7.42;90.95;95877.64;1780460;80;20895;-58
2022/01/05 00:45:57;;;;;;;5.33;3.80;;;;;;;7.47;90.76;95874.80;1780411;80;20833;-64
2022/01/05 00:48:24;;;;;;;4.53;3.15;;;;;;;7.53;90.57;95878.86;1780467;80;20923;-64
2022/01/05 00:50:50;;;;;;;4.05;3.17;;;;;;;7.59;90.42;95886.89;1780493;80;21071;-62
2022/01/05 00:53:17;;;;;;;9.05;5.87;;;;;;;7.65;90.30;95885.63;1780364;80;20868;-62
2022/01/05 00:55:44;;;;;;;4.87;3.80;;;;;;;7.72;90.08;95885.89;1780313;80;20923;-64
2022/01/05 00:58:10;;;;;;;5.42;3.52;;;;;;;7.78;89.80;95888.59;1780434;80;20915;-65
2022/01/05 01:00:38;;;;;;;4.42;3.55;;;;;;;7.83;89.65;95884.41;1780473;80;20860;-62
2022/01/05 01:03:05;;;;;;;6.58;3.90;;;;;;;7.89;89.41;95880.44;1780441;80;21111;-60
2022/01/05 01:05:31;;;;;;;4.70;3.27;;;;;;;7.95;89.25;95880.50;1780342;80;20958;-62
2022/01/05 01:07:59;;;;;;;5.65;4.25;;;;;;;8.01;89.03;95889.06;1780315;80;20880;-64
2022/01/05 01:10:25;;;;;;;5.33;3.92;;;;;;;8.07;88.64;95890.45;1780634;80;21380;-65
2022/01/05 01:12:52;;;;;;;6.40;3.55;;;;;;;8.13;88.32;95893.94;1780443;80;20959;-64
2022/01/05 01:15:18;;;;;;;5.53;3.22;;;;;;;8.21;87.94;95885.10;1780448;80;21644;-65
2022/01/05 01:17:45;;;;;;;4.50;3.02;;;;;;;8.27;87.76;95881.70;1780372;80;20947;-64
2022/01/05 01:20:12;;;;;;;5.35;4.25;;;;;;;8.33;87.32;95881.75;1780492;80;20935;-60
2022/01/05 01:22:39;;;;;;;5.20;4.00;;;;;;;8.42;87.22;95879.78;1780418;80;20994;-60
2022/01/05 01:25:07;;;;;;;4.40;3.92;;;;;;;8.46;86.84;95871.89;1780437;80;20895;-60
2022/01/05 01:27:34;;;;;;;5.00;3.60;;;;;;;8.49;86.41;95871.25;1780324;79;21868;-65
2022/01/05 01:30:03;;;;;;;4.62;2.90;;;;;;;8.55;86.13;95887.30;1780363;80;21191;-61
2022/01/05 01:32:29;;;;;;;5.00;3.20;;;;;;;8.59;85.44;95879.64;1780328;80;20840;-62
2022/01/05 01:34:58;;;;;;;3.58;3.00;;;;;;;8.67;85.54;95884.66;1780393;80;21335;-62
2022/01/05 01:37:25;;;;;;;3.90;3.40;;;;;;;8.71;85.25;95894.92;1780464;80;21003;-65
2022/01/05 01:39:51;;;;;;;4.58;3.77;;;;;;;8.75;84.81;95883.80;1780511;80;21541;-65
2022/01/05 01:42:19;;;;;;;11.08;4.70;;;;;;;8.81;84.49;95877.14;1780357;80;20864;-64
2022/01/05 01:44:46;;;;;;;6.08;4.47;;;;;;;8.85;84.49;95880.73;1780403;80;20902;-60
2022/01/05 01:47:12;;;;;;;6.55;4.37;;;;;;;8.86;84.46;95884.95;1780390;80;20911;-64
2022/01/05 01:49:39;;;;;;;5.42;4.28;;;;;;;8.86;84.42;95891.62;1780452;80;20944;-64
2022/01/05 01:52:06;;;;;;;4.62;3.98;;;;;;;8.88;84.36;95896.07;1780420;80;21110;-64
2022/01/05 01:54:35;;;;;;;3.80;3.30;;;;;;;8.89;84.11;95904.31;1780444;80;20954;-60
2022/01/05 01:57:02;;;;;;;3.90;3.20;;;;;;;8.92;84.03;95903.67;1780415;80;21002;-60
2022/01/05 01:59:29;;;;;;;4.22;3.80;;;;;;;8.92;83.86;95899.12;1780608;80;21356;-60
2022/01/05 02:01:56;;;;;;;4.53;3.50;;;;;;;8.93;83.79;95906.55;1780652;80;20880;-59
2022/01/05 02:04:23;;;;;;;3.30;3.00;;;;;;;8.93;83.51;95919.90;1780311;80;21112;-62
2022/01/05 02:06:51;;;;;;;4.30;3.35;;;;;;;8.96;83.07;95905.90;1780523;80;20910;-60
2022/01/05 02:09:18;;;;;;;3.90;3.50;;;;;;;9.03;83.16;95903.47;1780782;80;20864;-64
2022/01/05 02:11:45;;;;;;;3.60;3.30;;;;;;;9.08;82.84;95900.59;1780565;80;20903;-64
2022/01/05 02:14:12;;;;;;;4.05;3.60;;;;;;;9.11;82.68;95911.95;1780585;80;21034;-63
2022/01/05 02:16:43;;;;;;;5.22;4.00;;;;;;;9.15;82.40;95910.73;1780580;80;22175;-62
2022/01/05 02:19:07;;;;;;;4.50;3.52;;;;;;;9.16;82.22;95906.38;1780176;80;20872;-64
2022/01/05 02:21:37;;;;;;;5.12;3.72;;;;;;;9.18;82.15;95910.86;1780581;80;21050;-64
2022/01/05 02:24:07;;;;;;;3.80;3.30;;;;;;;9.20;82.18;95908.64;1780720;80;20880;-60
2022/01/05 02:26:34;;;;;;;4.83;3.83;;;;;;;9.20;82.17;95920.66;1820972;78;21013;-65
2022/01/05 02:29:02;;;;;;;5.55;3.65;;;;;;;9.20;81.82;95908.64;1816012;79;21108;-65
2022/01/05 02:31:29;;;;;;;4.10;3.62;;;;;;;9.22;81.57;95917.09;1815991;79;20857;-64
2022/01/05 02:33:56;;;;;;;5.30;3.77;;;;;;;9.26;81.38;95919.87;1816001;79;20872;-65
2022/01/05 02:36:22;;;;;;;5.50;3.85;;;;;;;9.30;81.17;95917.54;1815963;79;21533;-65
2022/01/05 02:38:51;;;;;;;4.40;3.70;;;;;;;9.32;81.05;95916.68;1816006;78;20865;-60
2022/01/05 02:41:18;;;;;;;4.05;3.65;;;;;;;9.35;81.15;95920.58;1815881;78;21067;-64
2022/01/05 02:43:47;;;;;;;5.42;4.47;;;;;;;9.36;80.77;95910.89;1815908;78;20857;-60
2022/01/05 02:46:18;;;;;;;4.75;4.00;;;;;;;9.39;80.38;95922.25;1815954;79;20947;-64
2022/01/05 02:48:45;;;;;;;5.62;3.70;;;;;;;9.41;80.30;95914.69;1777422;80;21502;-65
2022/01/05 02:51:13;;;;;;;5.35;3.50;;;;;;;9.44;80.28;95926.02;1777254;80;20990;-60
2022/01/05 02:53:40;;;;;;;5.50;4.33;;;;;;;9.47;80.16;95927.25;1777239;80;21127;-64
2022/01/05 02:56:06;;;;;;;5.50;3.90;;;;;;;9.51;80.10;95936.19;1777187;80;21367;-62
2022/01/05 02:58:33;;;;;;;4.87;4.10;;;;;;;9.52;79.54;95935.06;1777234;80;20869;-64
2022/01/05 03:01:00;;;;;;;4.25;3.50;;;;;;;9.56;79.65;95932.72;1777473;80;20884;-63
2022/01/05 03:03:27;;;;;;;4.75;3.30;;;;;;;9.56;79.45;95937.31;1777141;80;20915;-64
2022/01/05 03:05:53;;;;;;;4.12;3.50;;;;;;;9.58;79.70;95933.20;1777218;80;21109;-63
2022/01/05 03:08:20;;;;;;;4.60;3.83;;;;;;;9.58;79.42;95919.83;1777162;80;20943;-62
2022/01/05 03:10:46;;;;;;;5.72;3.90;;;;;;;9.59;79.63;95947.31;1777221;80;20904;-60
2022/01/05 03:13:13;;;;;;;5.35;3.90;;;;;;;9.58;79.75;95942.55;1777180;80;20911;-62
2022/01/05 03:15:40;;;;;;;4.70;4.05;;;;;;;9.57;79.67;95946.33;1777325;80;21427;-62
2022/01/05 03:18:07;;;;;;;6.53;4.08;;;;;;;9.55;79.76;95963.25;1777193;80;21124;-64
2022/01/05 03:20:34;;;;;;;5.60;3.95;;;;;;;9.54;79.87;95968.36;1777162;80;20959;-64
2022/01/05 03:23:06;;;;;;;6.83;3.72;;;;;;;9.53;79.93;95965.48;1777300;80;20987;-62
2022/01/05 03:25:33;;;;;;;5.08;3.60;;;;;;;9.49;80.00;95972.58;1777156;80;20974;-61
2022/01/05 03:27:59;;;;;;;5.65;4.33;;;;;;;9.49;80.25;95980.59;1782609;80;21360;-59
2022/01/05 03:30:29;;;;;;;4.87;3.98;;;;;;;9.47;80.39;95978.81;1785491;80;21120;-60
2022/01/05 03:35:23;;;;;;;5.60;4.37;;;;;;;9.43;80.62;95997.96;1785487;80;20907;-65
2022/01/05 03:37:50;;;;;;;7.92;4.75;;;;;;;9.42;80.72;96001.73;1785463;80;20832;-61
2022/01/05 03:40:17;;;;;;;5.05;4.33;;;;;;;9.42;80.85;95995.63;1785504;80;20860;-62
2022/01/05 03:42:44;;;;;;;5.80;4.40;;;;;;;9.40;80.89;96011.19;1785489;80;21121;-60
2022/01/05 03:45:11;;;;;;;4.78;4.28;;;;;;;9.37;81.11;96004.61;1785478;80;21359;-61
2022/01/05 03:47:37;;;;;;;5.70;3.80;;;;;;;9.33;81.27;96022.41;1785458;80;20903;-60
2022/01/05 03:50:05;;;;;;;5.10;4.42;;;;;;;9.31;81.42;96023.30;1785490;80;20907;-59
2022/01/05 03:52:33;;;;;;;6.17;4.53;;;;;;;9.30;81.57;96019.05;1785466;80;20950;-59
2022/01/05 03:55:00;;;;;;;5.37;4.40;;;;;;;9.31;81.66;96028.65;1785552;80;21087;-59
2022/01/05 03:57:26;;;;;;;5.97;4.40;;;;;;;9.33;81.78;96036.33;1785404;80;20860;-60
2022/01/05 03:59:53;;;;;;;7.30;4.67;;;;;;;9.30;81.78;96028.41;1785448;80;20964;-60
2022/01/05 04:02:21;;;;;;;5.33;4.50;;;;;;;9.30;81.87;96024.40;1785531;80;20898;-62
2022/01/05 04:04:48;;;;;;;6.33;4.47;;;;;;;9.30;81.96;96027.07;1785440;80;20903;-62
2022/01/05 04:07:16;;;;;;;4.90;4.25;;;;;;;9.28;82.10;96038.64;1785456;80;21119;-65
2022/01/05 04:09:42;;;;;;;5.65;4.53;;;;;;;9.28;82.19;96029.87;1785385;80;21002;-65
2022/01/05 04:12:11;;;;;;;5.20;4.58;;;;;;;9.23;82.35;96029.49;1785426;80;20844;-60
2022/01/05 04:14:38;;;;;;;5.35;4.40;;;;;;;9.21;82.49;96051.75;1785442;80;20871;-60
2022/01/05 04:17:04;;;;;;;6.15;4.80;;;;;;;9.19;82.67;96054.52;1785479;80;21462;-60
2022/01/05 04:19:31;;;;;;;6.83;4.60;;;;;;;9.18;82.79;96063.11;1785444;80;21168;-65
2022/01/05 04:21:58;;;;;;;6.33;4.45;;;;;;;9.16;82.91;96067.22;1785387;80;20884;-62
2022/01/05 04:24:25;;;;;;;4.97;4.05;;;;;;;9.14;83.13;96066.19;1785452;80;21426;-62
2022/01/05 04:26:52;;;;;;;5.22;4.08;;;;;;;9.13;83.25;96049.16;1785026;80;20963;-62
2022/01/05 04:29:19;;;;;;;4.92;4.20;;;;;;;9.13;83.38;96049.95;1777213;80;20872;-60
2022/01/05 04:31:46;;;;;;;4.53;3.72;;;;;;;9.12;83.44;96056.94;1777142;80;21111;-62
2022/01/05 04:34:14;;;;;;;5.47;4.40;;;;;;;9.10;83.52;96052.48;1777256;80;20916;-62
2022/01/05 04:36:41;;;;;;;4.90;3.80;;;;;;;9.10;83.55;96054.60;1777159;80;20904;-65
2022/01/05 04:39:08;;;;;;;6.12;4.20;;;;;;;9.09;83.61;96066.38;1777125;80;20848;-59
2022/01/05 04:41:35;;;;;;;6.35;4.22;;;;;;;9.09;83.63;96065.63;1777183;80;20963;-64
2022/01/05 04:44:02;;;;;;;4.80;3.90;;;;;;;9.10;83.67;96084.53;1777132;80;21687;-62
2022/01/05 04:46:29;;;;;;;4.05;3.40;;;;;;;9.10;83.63;96093.33;1777050;80;20907;-60
2022/01/05 04:48:56;;;;;;;4.28;3.50;;;;;;;9.10;83.65;96093.33;1777147;80;20967;-62
2022/01/05 04:51:23;;;;;;;5.45;3.62;;;;;;;9.07;83.74;96091.30;1777044;80;20907;-62
2022/01/05 04:53:51;;;;;;;5.28;3.70;;;;;;;9.07;83.83;96108.66;1777183;80;21399;-60
2022/01/05 04:56:18;;;;;;;4.85;3.20;;;;;;;9.05;83.92;96121.56;1777040;80;21312;-64
2022/01/05 04:58:45;;;;;;;3.77;3.22;;;;;;;9.04;84.02;96122.69;1777078;80;20912;-64
2022/01/05 05:01:12;;;;;;;3.87;3.08;;;;;;;9.03;84.12;96126.99;1777125;80;21021;-59
2022/01/05 05:03:39;;;;;;;5.75;3.25;;;;;;;9.02;84.24;96127.54;1777332;80;21383;-65
2022/01/05 05:06:06;;;;;;;6.05;2.85;;;;;;;9.00;84.43;96129.76;1777315;80;20924;-60
2022/01/05 05:08:33;;;;;;;3.77;2.50;;;;;;;8.99;84.56;96133.55;1777112;80;21123;-59
2022/01/05 05:11:00;;;;;;;3.30;2.50;;;;;;;8.95;84.75;96132.06;1777264;80;20837;-62
2022/01/05 05:13:27;;;;;;;4.55;2.55;;;;;;;8.89;85.09;96136.59;1777251;80;21399;-62
2022/01/05 05:15:54;;;;;;;3.15;2.70;;;;;;;8.85;85.31;96141.02;1777126;80;20919;-62
2022/01/05 05:18:20;;;;;;;3.58;2.92;;;;;;;8.79;85.53;96134.28;1777161;80;20967;-64
2022/01/05 05:20:47;;;;;;;3.15;2.72;;;;;;;8.77;85.68;96143.17;1777128;80;21118;-64
2022/01/05 05:23:14;;;;;;;5.33;3.37;;;;;;;8.77;85.87;96153.85;1777079;80;20880;-62
2022/01/05 05:25:40;;;;;;;4.97;3.10;;;;;;;8.73;86.19;96155.61;1777087;80;20836;-60
2022/01/05 05:28:07;;;;;;;3.12;2.77;;;;;;;8.72;86.44;96155.36;1777025;80;20923;-59
2022/01/05 05:30:34;;;;;;;5.90;3.50;;;;;;;8.71;86.60;96163.95;1777166;80;20970;-60
2022/01/05 05:33:03;;;;;;;6.70;3.35;;;;;;;8.67;86.94;96162.21;1777242;80;21723;-65
2022/01/05 05:35:30;;;;;;;3.65;2.90;;;;;;;8.64;87.09;96165.55;1777145;80;21391;-65
2022/01/05 05:37:57;;;;;;;5.17;3.20;;;;;;;8.62;87.29;96172.52;1777121;80;21379;-59
2022/01/05 05:40:24;;;;;;;5.03;3.22;;;;;;;8.61;87.39;96184.86;1777281;80;20963;-60
2022/01/05 05:42:51;;;;;;;6.12;2.95;;;;;;;8.62;87.53;96181.10;1777330;80;20860;-60
2022/01/05 05:45:17;;;;;;;5.80;3.20;;;;;;;8.62;87.99;96185.86;1750144;80;21838;-59
2022/01/05 05:47:44;;;;;;;3.95;3.20;;;;;;;8.57;88.14;96191.38;1777403;80;20951;-62
2022/01/05 05:50:10;;;;;;;3.55;3.25;;;;;;;8.52;88.21;96188.13;1777547;80;20947;-62
2022/01/05 05:52:38;;;;;;;4.42;3.22;;;;;;;8.48;88.37;96201.88;1777264;80;20884;-64
2022/01/05 05:55:05;;;;;;;3.62;2.67;;;;;;;8.41;88.46;96201.59;1777395;80;20915;-62
2022/01/05 05:57:32;;;;;;;4.60;3.35;;;;;;;8.33;88.18;96205.05;1777180;80;21096;-63
2022/01/05 05:59:59;;;;;;;5.08;3.20;;;;;;;8.25;88.16;96215.39;1777214;80;20892;-64
2022/01/05 06:02:26;;;;;;;5.17;2.95;;;;;;;8.22;88.10;96214.69;1777274;80;20911;-64
2022/01/05 06:04:53;;;;;;;3.45;2.83;;;;;;;8.17;87.95;96228.76;1777300;80;20923;-62
2022/01/05 06:07:19;;;;;;;3.75;2.65;;;;;;;8.13;88.03;96241.92;1777372;80;20907;-60
2022/01/05 06:09:46;;;;;;;4.70;3.08;;;;;;;8.11;87.88;96252.13;1777247;80;21058;-60
2022/01/05 06:12:14;;;;;;;4.80;3.17;;;;;;;8.12;87.85;96257.70;1777044;80;20927;-62
2022/01/05 06:14:42;;;;;;;5.53;3.35;;;;;;;8.15;87.52;96259.72;1777338;80;20955;-60
2022/01/05 06:17:08;;;;;;;5.65;3.17;;;;;;;8.12;87.05;96273.70;1777534;80;20852;-60
2022/01/05 06:19:35;;;;;;;4.42;2.90;;;;;;;8.10;86.92;96277.79;1777384;80;20927;-62
2022/01/05 06:22:03;;;;;;;4.45;3.10;;;;;;;8.04;87.06;96274.48;1777220;80;21114;-60
2022/01/05 06:24:30;;;;;;;6.67;3.17;;;;;;;7.98;86.89;96286.42;1777547;80;21358;-61
2022/01/05 06:26:57;;;;;;;2.62;2.15;;;;;;;7.95;86.01;96287.05;1777399;80;20895;-60
2022/01/05 06:29:23;;;;;;;4.55;2.10;;;;;;;7.91;83.45;96274.11;1784172;80;20915;-61
2022/01/05 06:31:50;;;;;;;3.37;2.27;;;;;;;7.88;83.21;96277.94;1785540;80;21398;-65
2022/01/05 06:34:16;;;;;;;3.50;2.52;;;;;;;7.82;83.18;96273.30;1785717;80;21113;-65
2022/01/05 06:36:43;;;;;;;4.45;3.08;;;;;;;7.77;82.69;96269.48;1785692;80;20923;-63
2022/01/05 06:39:11;;;;;;;2.42;2.00;;;;;;;7.74;82.56;96270.64;1785602;80;21419;-61
2022/01/05 06:41:38;;;;;;;3.37;2.45;;;;;;;7.71;82.20;96283.25;1785502;80;20939;-66
2022/01/05 06:44:05;;;;;;;3.35;2.12;;;;;;;7.66;81.94;96282.07;1785548;80;20958;-64
2022/01/05 06:46:32;;;;;;;4.05;2.40;;;;;;;7.63;82.15;96293.38;1785746;80;21091;-65
2022/01/05 06:48:58;;;;;;;3.27;2.50;;;;;;;7.62;82.32;96308.57;1785645;80;20899;-64
2022/01/05 06:51:25;;;;;;;3.62;2.27;;;;;;;7.59;82.59;96309.97;1785469;80;20911;-65
2022/01/05 06:53:52;;;;;;;4.40;2.27;;;;;;;7.54;82.96;96315.98;1785482;80;20994;-63
2022/01/05 06:56:18;;;;;;;2.85;2.42;;;;;;;7.48;83.41;96309.25;1785539;80;20911;-63
2022/01/05 06:58:45;;;;;;;3.85;2.30;;;;;;;7.45;83.96;96302.66;1785704;80;21494;-65
2022/01/05 07:01:12;;;;;;;3.00;2.60;;;;;;;7.45;84.26;96308.53;1785409;80;20993;-63
2022/01/05 07:03:39;;;;;;;3.67;2.42;;;;;;;7.40;84.72;96302.80;1785345;80;20840;-61
2022/01/05 07:06:05;;;;;;;3.95;2.35;;;;;;;7.39;85.02;96300.45;1785457;80;20919;-61
2022/01/05 07:08:32;;;;;;;5.30;2.60;;;;;;;7.35;85.24;96298.95;1785615;80;21568;-61
2022/01/05 07:10:58;;;;;;;4.50;2.85;;;;;;;7.34;85.57;96316.04;1785880;80;21109;-65
2022/01/05 07:13:25;;;;;;;3.75;2.72;;;;;;;7.33;85.87;96323.78;1785364;80;20883;-63
2022/01/05 07:15:52;;;;;;;2.92;2.60;;;;;;;7.32;86.28;96322.77;1783152;80;21579;-61
2022/01/05 07:18:19;;;;;;;4.60;2.60;;;;;;;7.33;86.37;96311.00;1771736;79;20963;-59
2022/01/05 07:20:46;;;;;;;4.85;3.08;;;;;;;7.28;86.59;96310.59;1773663;79;20987;-60
2022/01/05 07:23:13;;;;;;;5.25;3.50;;;;;;;7.27;86.85;96317.03;1776041;79;21047;-59
2022/01/05 07:25:39;;;;;;;8.70;5.08;;;;;;;7.27;87.17;96318.37;1785372;80;20911;-59
2022/01/05 07:28:06;;;;;;;8.48;6.15;;;;;;;7.27;87.42;96318.37;1774469;80;21746;-59
2022/01/05 07:30:34;;;;;;;9.08;7.55;;;;;;;7.28;87.63;96324.45;1770618;79;21011;-63
2022/01/05 07:33:00;;;;;;;12.33;9.05;;;;;;;7.28;87.80;96324.45;1770862;80;20994;-59
2022/01/05 07:35:27;;;;;;;11.15;5.87;;;;;;;7.27;88.01;96326.90;1787479;79;21753;-57
2022/01/05 07:37:54;;;;;;;9.03;6.35;;;;;;;7.27;88.25;96330.89;1762839;79;21027;-64
2022/01/05 07:40:21;;;;;;;6.83;4.95;;;;;;;7.27;88.36;96328.23;1757646;79;21025;-59
2022/01/05 07:42:47;;;;;;;9.73;5.25;;;;;;;7.24;88.55;96323.52;1764388;79;20983;-60
2022/01/05 07:45:14;;;;;;;6.15;5.22;;;;;;;7.22;88.69;96333.69;1773997;79;20975;-64
2022/01/05 07:47:42;;;;;;;6.65;4.87;;;;;;;7.16;88.77;96337.59;1762152;80;21370;-61
2022/01/05 07:50:14;;;;;;;5.95;4.28;;;;;;;7.15;88.89;96338.67;1773809;79;21352;-63
2022/01/05 07:52:39;;;;;;;6.25;4.60;;;;;;;7.15;88.99;96328.81;1758389;79;21063;-65
2022/01/05 07:55:09;;;;;;;6.80;4.33;;;;;;;7.19;89.01;96332.42;1760786;79;20989;-60
2022/01/05 07:57:38;;;;;;;5.25;4.30;;;;;;;7.22;88.94;96324.38;1764363;79;21062;-61
2022/01/05 08:00:07;;;;;;;7.12;4.50;;;;;;;7.25;88.97;96317.11;1771753;80;21068;-59
2022/01/05 08:02:34;;;;;;;4.53;4.00;;;;;;;7.27;88.88;96325.56;1748801;80;21492;-63
2022/01/05 08:05:03;;;;;;;7.87;4.65;;;;;;;7.24;88.88;96328.30;1767649;80;21844;-60
2022/01/05 08:07:34;;;;;;;6.25;4.60;;;;;;;7.23;88.76;96324.63;1764599;80;20893;-57
2022/01/05 08:10:07;;;;;;;5.67;4.53;;;;;;;7.23;88.80;96332.61;1764839;79;21034;-61
2022/01/05 08:12:41;;;;;;;5.72;4.50;;;;;;;7.24;88.90;96330.17;1749949;80;21105;-57
2022/01/05 08:15:10;;;;;;;4.92;3.85;;;;;;;7.25;88.91;96326.42;1765052;80;21014;-62
2022/01/05 08:17:40;;;;;;;5.35;4.17;;;;;;;7.26;88.85;96324.77;1766045;80;20931;-59
2022/01/05 08:20:10;;;;;;;5.28;4.35;;;;;;;7.19;88.73;96327.64;1793351;78;20931;-60
2022/01/05 08:22:44;;;;;;;6.12;4.15;;;;;;;7.16;88.84;96333.60;1746560;80;20876;-64
2022/01/05 08:25:15;;;;;;;6.33;4.47;;;;;;;7.14;88.80;96335.77;1756938;80;21079;-58
2022/01/05 08:27:46;;;;;;;5.47;3.95;;;;;;;7.15;88.64;96345.33;1757453;80;21038;-58
2022/01/05 08:30:16;;;;;;;6.53;4.45;;;;;;;7.11;88.64;96343.05;1774769;79;21058;-58
2022/01/05 08:32:44;;;;;;;4.80;4.10;;;;;;;7.11;88.61;96349.71;1811767;77;21010;-61
2022/01/05 08:35:12;;;;;;;6.37;4.20;;;;;;;7.11;88.50;96348.38;1812956;77;21014;-59
2022/01/05 08:37:43;;;;;;;4.80;3.83;;;;;;;7.13;88.40;96348.31;1820727;78;21164;-64
2022/01/05 08:40:12;;;;;;;5.72;4.00;;;;;;;7.09;88.19;96347.34;1765827;80;20956;-59
2022/01/05 08:42:40;;;;;;;8.03;4.20;;;;;;;7.04;87.68;96347.50;1761540;80;20950;-64
2022/01/05 08:45:09;;;;;;;5.83;4.47;;;;;;;7.02;87.71;96351.55;1833413;77;21109;-59
2022/01/05 08:47:36;;;;;;;6.87;4.30;;;;;;;7.01;87.72;96348.64;1833925;77;21042;-61
2022/01/05 08:50:04;;;;;;;5.78;4.47;;;;;;;6.99;87.79;96340.18;1843137;77;21122;-58
2022/01/05 08:52:32;;;;;;;6.30;4.40;;;;;;;7.00;87.74;96340.41;1822640;77;20919;-63
2022/01/05 08:54:58;;;;;;;6.03;4.00;;;;;;;7.03;87.68;96342.46;1826440;77;20910;-66
2022/01/05 08:57:25;;;;;;;6.20;4.45;;;;;;;7.08;87.58;96338.34;1847400;77;20976;-63
2022/01/05 08:59:52;;;;;;;5.45;3.85;;;;;;;7.10;87.63;96333.48;1856026;77;20816;-64
2022/01/05 09:02:19;;;;;;;5.12;4.25;;;;;;;7.13;87.73;96330.22;1772086;79;21105;-57
2022/01/05 09:04:51;;;;;;;5.60;4.58;;;;;;;7.17;87.94;96332.49;1827259;77;21021;-60
2022/01/05 09:07:17;;;;;;;9.28;6.78;;;;;;;7.23;87.81;96336.60;1805880;78;21419;-58
2022/01/05 09:09:44;;;;;;;5.55;4.95;;;;;;;7.28;87.84;96338.56;1763007;79;20935;-66
2022/01/05 09:12:11;;;;;;;5.70;4.83;;;;;;;7.35;87.87;96336.78;1773658;80;20872;-65
2022/01/05 09:14:39;;;;;;;6.05;4.58;;;;;;;7.39;88.01;96333.75;1771586;79;21363;-65
2022/01/05 09:17:07;;;;;;;6.83;4.60;;;;;;;7.44;88.01;96334.37;1765087;79;21434;-65
2022/01/05 09:19:34;;;;;;;6.30;4.42;;;;;;;7.49;87.89;96332.11;1768348;79;20962;-63
2022/01/05 09:22:01;;;;;;;6.95;4.83;;;;;;;7.50;87.52;96332.36;1810234;77;21039;-65
2022/01/05 09:24:29;;;;;;;;;;;;;;;7.44;87.35;96338.94;1826905;78;36035;-67
2022/01/05 09:27:02;;;;;;;6.35;4.28;;;;;;;7.36;87.12;96337.03;1824109;78;20476;-61
2022/01/05 09:29:26;;;;;;;7.55;5.53;;;;;;;7.29;87.26;96338.02;1822649;78;20911;-59
2022/01/05 09:31:54;;;;;;;7.17;5.65;;;;;;;7.26;87.16;96331.97;1824198;78;21533;-61
2022/01/05 09:34:21;;;;;;;5.58;4.92;;;;;;;7.23;87.28;96319.30;1823703;78;21031;-61
2022/01/05 09:36:52;;;;;;;6.53;5.12;;;;;;;7.24;87.43;96328.84;1824523;78;20952;-60
2022/01/05 09:42:06;;;;;;;10.35;8.90;;;;;;;7.26;87.58;96322.11;1824536;78;21454;-64
2022/01/05 09:44:37;;;;;;;12.00;10.55;;;;;;;7.27;87.13;96314.91;1822083;78;21022;-58
2022/01/05 09:47:25;;;;;;;8.95;5.87;;;;;;;7.25;86.93;96314.44;1824577;78;20916;-63
2022/01/05 09:50:05;;;;;;;6.37;5.45;;;;;;;7.28;86.78;96308.48;1824717;78;20962;-64
2022/01/05 09:52:34;;;;;;;9.23;5.70;;;;;;;7.27;86.64;96313.58;1824373;77;21106;-59
2022/01/05 09:55:07;;;;;;;6.47;4.85;;;;;;;7.20;86.56;96313.25;1824438;78;20817;-59
2022/01/05 09:57:37;;;;;;;7.70;4.90;;;;;;;7.15;86.77;96314.71;1824801;77;20880;-65
2022/01/05 10:00:06;;;;;;;5.80;5.22;;;;;;;7.08;87.13;96311.17;1805080;78;20971;-58
2022/01/05 10:02:35;;;;;;;7.85;5.10;;;;;;;7.05;87.38;96310.98;1765246;80;20904;-63
2022/01/05 10:05:05;;;;;;;5.92;5.00;;;;;;;7.03;87.62;96317.17;1777628;80;21106;-60
2022/01/05 10:07:34;;;;;;;6.53;4.75;;;;;;;6.99;87.73;96316.22;1767114;80;20868;-62
2022/01/05 10:10:05;;;;;;;5.90;4.80;;;;;;;6.99;87.93;96321.55;1763521;80;21481;-59
2022/01/05 10:12:33;;;;;;;4.55;4.05;;;;;;;6.97;87.85;96319.20;1782755;80;20944;-61
2022/01/05 10:15:00;;;;;;;5.50;4.28;;;;;;;6.97;87.94;96314.42;1783078;80;20864;-64
2022/01/05 10:17:29;;;;;;;6.35;4.80;;;;;;;6.98;88.08;96330.61;1770730;80;21098;-63
2022/01/05 10:20:06;;;;;;;5.70;5.10;;;;;;;6.98;88.19;96333.27;1783071;80;20896;-64
2022/01/05 10:22:42;;;;;;;5.90;4.75;;;;;;;6.95;88.26;96337.33;1773679;80;20908;-60
2022/01/05 10:25:20;;;;;;;7.05;5.60;;;;;;;6.97;88.35;96347.69;1783270;80;20903;-58
2022/01/05 10:28:02;;;;;;;8.18;6.17;;;;;;;6.90;88.42;96338.25;1762563;80;20959;-60
2022/01/05 10:30:41;;;;;;;7.17;5.55;;;;;;;6.82;88.43;96339.01;1840231;77;21660;-58
2022/01/05 10:33:08;;;;;;;5.90;4.65;;;;;;;6.70;88.29;96334.00;1824973;77;21326;-59
2022/01/05 10:35:35;;;;;;;8.48;5.00;;;;;;;6.66;88.26;96327.19;1816187;78;20947;-60
2022/01/05 10:38:05;;;;;;;5.60;4.47;;;;;;;6.63;87.99;96325.13;1808200;77;21521;-59
2022/01/05 10:40:34;;;;;;;5.78;4.70;;;;;;;6.58;87.89;96325.25;1768474;80;20950;-63
2022/01/05 10:43:09;;;;;;;6.22;4.62;;;;;;;6.52;87.93;96321.16;1770109;80;21098;-64
2022/01/05 10:45:47;;;;;;;5.15;4.30;;;;;;;6.47;88.20;96322.61;1763022;80;20887;-64
2022/01/05 10:48:19;;;;;;;6.50;4.65;;;;;;;6.44;88.32;96318.43;1793679;77;20919;-64
2022/01/05 10:50:48;;;;;;;6.00;4.47;;;;;;;6.38;88.67;96309.81;1806565;77;21411;-61
2022/01/05 10:53:20;;;;;;;8.33;4.55;;;;;;;6.34;88.94;96308.83;1815155;78;20959;-59
2022/01/05 10:55:45;;;;;;;7.90;5.20;;;;;;;6.32;88.97;96303.03;1785331;80;21167;-62
2022/01/05 10:58:17;;;;;;;7.62;5.42;;;;;;;6.31;89.18;96298.81;1785602;80;20828;-60
2022/01/05 11:00:53;;;;;;;9.18;5.90;;;;;;;6.31;89.00;96296.69;1785455;80;20872;-60
2022/01/05 11:03:39;;;;;;;7.62;5.45;;;;;;;6.27;89.04;96293.05;1784842;80;21382;-62
2022/01/05 11:06:15;;;;;;;6.65;5.53;;;;;;;6.25;89.36;96291.24;1773442;80;20974;-61
2022/01/05 11:09:04;;;;;;;6.47;5.50;;;;;;;6.23;89.49;96287.56;1771781;79;21192;-58
2022/01/05 11:11:43;;;;;;;9.80;6.60;;;;;;;6.25;89.60;96284.06;1752519;81;20847;-63
2022/01/05 11:14:29;;;;;;;13.80;9.85;;;;;;;6.22;89.66;96284.66;1754212;81;20911;-62
2022/01/05 11:16:58;;;;;;;10.32;7.05;;;;;;;6.18;89.84;96290.34;1754113;81;20987;-60
2022/01/05 11:19:29;;;;;;;11.45;7.60;;;;;;;6.14;89.47;96288.06;1754658;81;21443;-60
2022/01/05 11:22:14;;;;;;;15.38;9.53;;;;;;;6.12;89.64;96289.67;1754438;81;21743;-60
2022/01/05 11:24:51;;;;;;;8.80;7.62;;;;;;;6.11;89.70;96282.01;1754683;81;20891;-59
2022/01/05 11:27:28;;;;;;;11.63;8.38;;;;;;;6.09;89.37;96282.32;1754396;81;20879;-60
2022/01/05 11:29:55;;;;;;;9.00;7.40;;;;;;;6.04;89.10;96281.11;1751464;81;20955;-61
2022/01/05 11:32:26;;;;;;;13.43;9.40;;;;;;;6.02;89.01;96282.49;1746925;80;20844;-59
2022/01/05 11:34:53;;;;;;;9.73;8.10;;;;;;;5.99;89.11;96274.58;1777055;80;22311;-59
2022/01/05 11:37:20;;;;;;;11.08;6.67;;;;;;;5.96;89.16;96270.39;1776349;80;21410;-61
2022/01/05 11:39:50;;;;;;;7.42;5.80;;;;;;;5.92;88.92;96265.45;1776988;80;20963;-60
2022/01/05 11:42:23;;;;;;;5.62;3.90;;;;;;;5.87;88.69;96257.59;1777078;80;21423;-59
2022/01/05 11:44:54;;;;;;;5.42;4.30;;;;;;;5.79;88.63;96254.31;1776484;80;20989;-64
2022/01/05 11:47:29;;;;;;;8.35;5.60;;;;;;;5.71;88.53;96261.13;1777006;80;21103;-62
2022/01/05 11:50:17;;;;;;;7.78;5.37;;;;;;;5.63;88.48;96255.75;1777147;80;20943;-60
2022/01/05 11:53:03;;;;;;;8.85;5.50;;;;;;;5.56;88.64;96263.34;1766062;79;21534;-60